createdAt,value
2023-05-01T00:00:26.410Z,995.39
2023-05-01T00:01:26.425Z,995.38
2023-05-01T00:02:26.469Z,995.39
2023-05-01T00:03:26.559Z,995.40
2023-05-01T00:04:26.491Z,995.42
2023-05-01T00:05:26.382Z,995.40
2023-05-01T00:06:26.437Z,995.40
2023-05-01T00:07:26.353Z,995.41
2023-05-01T00:08:28.055Z,995.39
2023-05-01T00:09:26.394Z,995.35
2023-05-01T00:10:26.336Z,995.38
2023-05-01T00:11:26.332Z,995.34
2023-05-01T00:12:26.334Z,995.38
2023-05-01T00:13:27.039Z,995.39
2023-05-01T00:14:26.332Z,995.33
2023-05-01T00:15:26.300Z,995.36
2023-05-01T00:16:26.324Z,995.38
2023-05-01T00:17:26.460Z,995.34
2023-05-01T00:18:26.304Z,995.34
2023-05-01T00:19:26.293Z,995.31
2023-05-01T00:20:26.277Z,995.30
2023-05-01T00:22:26.205Z,995.35
2023-05-01T00:23:26.224Z,995.26
2023-05-01T00:24:27.270Z,995.27
2023-05-01T00:25:27.255Z,995.24
2023-05-01T00:26:27.254Z,995.23
2023-05-01T00:27:27.256Z,995.24
2023-05-01T00:28:27.290Z,995.16
2023-05-01T00:29:27.233Z,995.18
2023-05-01T00:30:27.224Z,995.14
2023-05-01T00:31:27.223Z,995.12
2023-05-01T00:32:27.238Z,995.13
2023-05-01T00:33:27.203Z,995.13
2023-05-01T00:34:27.192Z,995.11
2023-05-01T00:35:27.206Z,995.08
2023-05-01T00:36:27.184Z,995.04
2023-05-01T00:37:27.184Z,995.00
2023-05-01T00:38:27.156Z,995.04
2023-05-01T00:39:27.169Z,995.04
2023-05-01T00:40:27.137Z,995.05
2023-05-01T00:41:27.144Z,994.97
2023-05-01T00:42:27.152Z,994.95
2023-05-01T00:43:27.137Z,994.95
2023-05-01T00:44:27.110Z,994.90
2023-05-01T00:45:28.108Z,994.90
2023-05-01T00:46:27.172Z,994.93
2023-05-01T00:47:27.134Z,994.94
2023-05-01T00:48:27.083Z,994.89
2023-05-01T00:49:27.093Z,994.95
2023-05-01T00:50:27.068Z,994.91
2023-05-01T00:51:27.078Z,994.89
2023-05-01T00:52:27.057Z,994.92
2023-05-01T00:53:27.046Z,994.90
2023-05-01T00:54:27.040Z,994.88
2023-05-01T00:55:27.027Z,994.95
2023-05-01T00:56:27.035Z,994.89
2023-05-01T00:57:27.039Z,994.87
2023-05-01T00:58:27.023Z,994.79
2023-05-01T00:59:27.016Z,994.82
2023-05-01T01:00:27.006Z,994.80
2023-05-01T01:01:27.030Z,994.84
2023-05-01T01:02:26.982Z,994.74
2023-05-01T01:03:26.971Z,994.80
2023-05-01T01:04:27.031Z,994.76
2023-05-01T01:05:27.653Z,994.74
2023-05-01T01:06:26.993Z,994.72
2023-05-01T01:07:26.949Z,994.71
2023-05-01T01:08:26.924Z,994.66
2023-05-01T01:09:26.917Z,994.70
2023-05-01T01:10:26.909Z,994.69
2023-05-01T01:11:26.919Z,994.65
2023-05-01T01:12:26.910Z,994.61
2023-05-01T01:13:26.905Z,994.66
2023-05-01T01:14:26.899Z,994.56
2023-05-01T01:15:26.875Z,994.58
2023-05-01T01:16:27.213Z,994.60
2023-05-01T01:17:26.866Z,994.56
2023-05-01T01:18:26.860Z,994.52
2023-05-01T01:19:26.860Z,994.53
2023-05-01T01:20:26.848Z,994.52
2023-05-01T01:21:26.822Z,994.49
2023-05-01T01:22:26.834Z,994.49
2023-05-01T01:23:26.807Z,994.52
2023-05-01T01:24:26.817Z,994.43
2023-05-01T01:25:26.806Z,994.44
2023-05-01T01:26:26.787Z,994.51
2023-05-01T01:27:26.808Z,994.44
2023-05-01T01:28:26.767Z,994.41
2023-05-01T01:29:26.802Z,994.47
2023-05-01T01:30:26.759Z,994.43
2023-05-01T01:31:26.809Z,994.39
2023-05-01T01:32:26.797Z,994.35
2023-05-01T01:33:26.730Z,994.35
2023-05-01T01:34:26.744Z,994.41
2023-05-01T01:35:26.709Z,994.37
2023-05-01T01:36:26.712Z,994.39
2023-05-01T01:37:26.705Z,994.40
2023-05-01T01:38:26.708Z,994.36
2023-05-01T01:39:26.691Z,994.33
2023-05-01T01:40:26.670Z,994.34
2023-05-01T01:41:26.680Z,994.35
2023-05-01T01:42:26.686Z,994.31
2023-05-01T01:43:26.670Z,994.36
2023-05-01T01:44:26.645Z,994.34
2023-05-01T01:45:26.654Z,994.29
2023-05-01T01:46:26.686Z,994.36
2023-05-01T01:47:26.674Z,994.35
2023-05-01T01:48:26.616Z,994.29
2023-05-01T01:49:26.627Z,994.22
2023-05-01T01:50:26.615Z,994.19
2023-05-01T01:51:26.599Z,994.23
2023-05-01T01:52:26.610Z,994.18
2023-05-01T01:53:26.578Z,994.16
2023-05-01T01:54:26.577Z,994.18
2023-05-01T01:55:27.156Z,994.13
2023-05-01T01:56:26.546Z,994.14
2023-05-01T01:57:26.554Z,994.15
2023-05-01T01:58:26.653Z,994.13
2023-05-01T01:59:26.544Z,994.09
2023-05-01T02:00:27.147Z,994.10
2023-05-01T02:01:26.540Z,994.09
2023-05-01T02:02:26.697Z,994.03
2023-05-01T02:03:26.722Z,994.04
2023-05-01T02:04:26.509Z,994.01
2023-05-01T02:05:26.489Z,994.03
2023-05-01T02:06:26.510Z,993.96
2023-05-01T02:07:26.458Z,993.94
2023-05-01T02:08:26.441Z,993.99
2023-05-01T02:09:26.450Z,993.94
2023-05-01T02:10:26.451Z,993.92
2023-05-01T02:11:26.432Z,993.94
2023-05-01T02:12:26.464Z,993.94
2023-05-01T02:13:26.410Z,993.91
2023-05-01T02:14:26.425Z,993.90
2023-05-01T02:15:26.414Z,993.90
2023-05-01T02:16:26.430Z,993.93
2023-05-01T02:17:26.429Z,993.92
2023-05-01T02:18:26.373Z,993.92
2023-05-01T02:19:26.380Z,993.92
2023-05-01T02:20:26.368Z,993.93
2023-05-01T02:21:26.380Z,993.91
2023-05-01T02:22:26.350Z,993.89
2023-05-01T02:23:26.338Z,993.84
2023-05-01T02:24:26.432Z,993.89
2023-05-01T02:25:27.907Z,993.89
2023-05-01T02:26:26.334Z,993.84
2023-05-01T02:27:26.347Z,993.87
2023-05-01T02:28:26.305Z,993.84
2023-05-01T02:29:26.288Z,993.85
2023-05-01T02:30:26.309Z,993.88
2023-05-01T02:31:26.302Z,993.85
2023-05-01T02:32:26.345Z,993.85
2023-05-01T02:33:26.259Z,993.84
2023-05-01T02:34:26.247Z,993.85
2023-05-01T02:35:26.275Z,993.87
2023-05-01T02:36:26.240Z,993.84
2023-05-01T02:37:26.248Z,993.81
2023-05-01T02:38:26.238Z,993.82
2023-05-01T02:39:26.248Z,993.77
2023-05-01T02:40:26.219Z,993.78
2023-05-01T02:41:28.190Z,993.72
2023-05-01T02:42:26.192Z,993.75
2023-05-01T02:43:26.184Z,993.74
2023-05-01T02:44:26.192Z,993.66
2023-05-01T02:45:26.231Z,993.70
2023-05-01T02:46:26.235Z,993.63
2023-05-01T02:47:26.242Z,993.60
2023-05-01T02:48:26.188Z,993.65
2023-05-01T02:49:26.162Z,993.61
2023-05-01T02:50:26.138Z,993.64
2023-05-01T02:51:26.128Z,993.67
2023-05-01T02:52:26.192Z,993.64
2023-05-01T02:53:26.701Z,993.61
2023-05-01T02:54:26.126Z,993.59
2023-05-01T02:55:26.104Z,993.57
2023-05-01T02:56:26.100Z,993.53
2023-05-01T02:57:26.096Z,993.59
2023-05-01T02:58:27.081Z,993.61
2023-05-01T02:59:26.671Z,993.56
2023-05-01T03:00:26.088Z,993.50
2023-05-01T03:01:26.153Z,993.59
2023-05-01T03:02:26.045Z,993.58
2023-05-01T03:03:26.059Z,993.52
2023-05-01T03:04:26.057Z,993.56
2023-05-01T03:05:26.044Z,993.51
2023-05-01T03:06:26.042Z,993.50
2023-05-01T03:07:26.026Z,993.60
2023-05-01T03:08:26.010Z,993.57
2023-05-01T03:09:25.989Z,993.51
2023-05-01T03:10:25.992Z,993.51
2023-05-01T03:11:25.973Z,993.54
2023-05-01T03:12:25.974Z,993.52
2023-05-01T03:13:25.988Z,993.52
2023-05-01T03:14:25.964Z,993.46
2023-05-01T03:15:25.957Z,993.40
2023-05-01T03:16:25.996Z,993.44
2023-05-01T03:17:25.953Z,993.45
2023-05-01T03:18:25.934Z,993.46
2023-05-01T03:19:25.913Z,993.45
2023-05-01T03:20:26.571Z,993.53
2023-05-01T03:21:25.921Z,993.48
2023-05-01T03:22:25.888Z,993.50
2023-05-01T03:23:25.885Z,993.51
2023-05-01T03:24:25.886Z,993.50
2023-05-01T03:25:25.864Z,993.47
2023-05-01T03:26:25.868Z,993.49
2023-05-01T03:27:25.840Z,993.51
2023-05-01T03:28:25.915Z,993.50
2023-05-01T03:29:25.860Z,993.50
2023-05-01T03:30:25.841Z,993.45
2023-05-01T03:31:25.876Z,993.43
2023-05-01T03:32:26.061Z,993.43
2023-05-01T03:33:25.824Z,993.45
2023-05-01T03:34:25.798Z,993.43
2023-05-01T03:35:25.875Z,993.38
2023-05-01T03:36:25.777Z,993.41
2023-05-01T03:37:25.796Z,993.39
2023-05-01T03:38:25.756Z,993.33
2023-05-01T03:39:25.755Z,993.33
2023-05-01T03:40:26.752Z,993.35
2023-05-01T03:41:25.735Z,993.39
2023-05-01T03:42:25.739Z,993.36
2023-05-01T03:43:25.844Z,993.36
2023-05-01T03:44:25.726Z,993.33
2023-05-01T03:45:25.701Z,993.28
2023-05-01T03:46:25.707Z,993.26
2023-05-01T03:47:26.759Z,993.30
2023-05-01T03:48:25.724Z,993.23
2023-05-01T03:49:25.676Z,993.23
2023-05-01T03:50:25.679Z,993.23
2023-05-01T03:51:25.712Z,993.19
2023-05-01T03:52:25.702Z,993.22
2023-05-01T03:53:25.646Z,993.18
2023-05-01T03:54:25.658Z,993.23
2023-05-01T03:55:25.645Z,993.31
2023-05-01T03:56:25.728Z,993.26
2023-05-01T03:57:25.617Z,993.26
2023-05-01T03:58:25.603Z,993.28
2023-05-01T03:59:25.605Z,993.29
2023-05-01T04:00:25.592Z,993.23
2023-05-01T04:01:25.610Z,993.23
2023-05-01T04:02:25.719Z,993.18
2023-05-01T04:03:25.631Z,993.25
2023-05-01T04:04:26.228Z,993.25
2023-05-01T04:05:26.553Z,993.26
2023-05-01T04:06:25.577Z,993.28
2023-05-01T04:07:25.537Z,993.20
2023-05-01T04:08:25.533Z,993.22
2023-05-01T04:09:25.527Z,993.22
2023-05-01T04:10:25.513Z,993.20
2023-05-01T04:11:25.520Z,993.17
2023-05-01T04:12:25.499Z,993.21
2023-05-01T04:13:25.708Z,993.24
2023-05-01T04:14:26.519Z,993.27
2023-05-01T04:15:25.493Z,993.21
2023-05-01T04:16:25.529Z,993.25
2023-05-01T04:17:25.466Z,993.24
2023-05-01T04:18:25.458Z,993.21
2023-05-01T04:19:25.479Z,993.27
2023-05-01T04:20:25.446Z,993.22
2023-05-01T04:21:26.205Z,993.22
2023-05-01T04:22:25.477Z,993.26
2023-05-01T04:23:25.426Z,993.22
2023-05-01T04:24:25.444Z,993.25
2023-05-01T04:25:25.400Z,993.22
2023-05-01T04:26:28.224Z,993.13
2023-05-01T04:27:25.382Z,993.21
2023-05-01T04:28:25.424Z,993.16
2023-05-01T04:29:25.373Z,993.20
2023-05-01T04:30:25.366Z,993.19
2023-05-01T04:31:25.396Z,993.22
2023-05-01T04:32:25.354Z,993.16
2023-05-01T04:33:25.347Z,993.22
2023-05-01T04:34:25.325Z,993.20
2023-05-01T04:35:25.345Z,993.20
2023-05-01T04:36:27.182Z,993.17
2023-05-01T04:37:25.320Z,993.19
2023-05-01T04:38:25.304Z,993.19
2023-05-01T04:39:25.275Z,993.22
2023-05-01T04:40:26.112Z,993.16
2023-05-01T04:41:25.278Z,993.24
2023-05-01T04:42:25.271Z,993.23
2023-05-01T04:43:25.248Z,993.21
2023-05-01T04:44:25.289Z,993.20
2023-05-01T04:45:25.247Z,993.24
2023-05-01T04:46:25.229Z,993.22
2023-05-01T04:47:25.221Z,993.27
2023-05-01T04:48:25.216Z,993.23
2023-05-01T04:49:27.091Z,993.25
2023-05-01T04:50:25.219Z,993.25
2023-05-01T04:51:25.202Z,993.25
2023-05-01T04:52:25.187Z,993.23
2023-05-01T04:53:25.205Z,993.25
2023-05-01T04:54:26.182Z,993.28
2023-05-01T04:55:26.193Z,993.29
2023-05-01T04:56:25.162Z,993.23
2023-05-01T04:57:25.163Z,993.27
2023-05-01T04:58:25.137Z,993.26
2023-05-01T04:59:25.141Z,993.24
2023-05-01T05:00:25.133Z,993.28
2023-05-01T05:01:25.188Z,993.30
2023-05-01T05:02:25.161Z,993.27
2023-05-01T05:03:25.186Z,993.28
2023-05-01T05:04:25.161Z,993.32
2023-05-01T05:05:25.143Z,993.30
2023-05-01T05:06:25.170Z,993.26
2023-05-01T05:07:25.069Z,993.35
2023-05-01T05:08:25.053Z,993.32
2023-05-01T05:09:25.086Z,993.33
2023-05-01T05:10:25.063Z,993.25
2023-05-01T05:11:25.063Z,993.26
2023-05-01T05:12:25.061Z,993.31
2023-05-01T05:13:25.042Z,993.26
2023-05-01T05:14:25.693Z,993.29
2023-05-01T05:15:25.020Z,993.34
2023-05-01T05:16:25.037Z,993.30
2023-05-01T05:17:25.011Z,993.31
2023-05-01T05:18:25.032Z,993.35
2023-05-01T05:19:24.978Z,993.30
2023-05-01T05:20:24.982Z,993.30
2023-05-01T05:21:24.979Z,993.30
2023-05-01T05:22:24.968Z,993.31
2023-05-01T05:23:24.951Z,993.36
2023-05-01T05:24:24.951Z,993.30
2023-05-01T05:25:24.987Z,993.29
2023-05-01T05:26:24.947Z,993.33
2023-05-01T05:27:24.988Z,993.38
2023-05-01T05:28:24.905Z,993.29
2023-05-01T05:29:26.617Z,993.24
2023-05-01T05:30:24.894Z,993.26
2023-05-01T05:31:24.967Z,993.29
2023-05-01T05:32:24.967Z,993.30
2023-05-01T05:33:24.887Z,993.30
2023-05-01T05:34:25.741Z,993.34
2023-05-01T05:35:24.863Z,993.33
2023-05-01T05:36:24.848Z,993.32
2023-05-01T05:37:24.831Z,993.30
2023-05-01T05:38:24.862Z,993.26
2023-05-01T05:39:24.869Z,993.26
2023-05-01T05:40:24.827Z,993.22
2023-05-01T05:41:24.805Z,993.20
2023-05-01T05:42:24.850Z,993.21
2023-05-01T05:43:27.329Z,993.22
2023-05-01T05:44:25.772Z,993.22
2023-05-01T05:45:24.793Z,993.24
2023-05-01T05:46:24.817Z,993.26
2023-05-01T05:47:24.824Z,993.25
2023-05-01T05:48:24.804Z,993.23
2023-05-01T05:49:24.752Z,993.16
2023-05-01T05:50:25.632Z,993.23
2023-05-01T05:51:26.697Z,993.18
2023-05-01T05:52:24.736Z,993.15
2023-05-01T05:53:25.999Z,993.12
2023-05-01T05:55:32.397Z,993.20
2023-05-01T05:56:32.401Z,993.19
2023-05-01T05:57:33.507Z,993.20
2023-05-01T05:58:33.464Z,993.20
2023-05-01T05:59:33.471Z,993.22
2023-05-01T06:00:33.458Z,993.23
2023-05-01T06:01:35.166Z,993.22
2023-05-01T06:02:33.575Z,993.23
2023-05-01T06:03:33.750Z,993.19
2023-05-01T06:04:33.426Z,993.19
2023-05-01T06:05:33.454Z,993.17
2023-05-01T06:06:33.449Z,993.18
2023-05-01T06:07:33.428Z,993.15
2023-05-01T06:08:33.387Z,993.15
2023-05-01T06:10:42.469Z,993.09
2023-05-01T06:11:44.337Z,993.16
2023-05-01T06:12:45.545Z,993.09
2023-05-01T06:13:44.543Z,993.10
2023-05-01T06:14:43.539Z,993.04
2023-05-01T06:15:43.575Z,993.08
2023-05-01T06:16:44.074Z,993.04
2023-05-01T06:17:43.570Z,993.05
2023-05-01T06:18:45.674Z,993.06
2023-05-01T06:19:45.406Z,993.07
2023-05-01T06:20:43.492Z,993.03
2023-05-01T06:21:44.732Z,993.00
2023-05-01T06:22:43.483Z,992.96
2023-05-01T06:23:43.481Z,992.96
2023-05-01T06:25:16.380Z,992.95
2023-05-01T06:25:43.452Z,992.90
2023-05-01T06:26:43.457Z,992.98
2023-05-01T06:27:43.473Z,993.01
2023-05-01T06:28:43.433Z,992.95
2023-05-01T06:29:43.417Z,993.00
2023-05-01T06:30:43.426Z,992.98
2023-05-01T06:31:43.414Z,992.96
2023-05-01T06:32:43.443Z,993.00
2023-05-01T06:33:43.412Z,993.04
2023-05-01T06:34:43.377Z,993.03
2023-05-01T06:35:43.410Z,992.98
2023-05-01T06:36:43.363Z,992.91
2023-05-01T06:37:44.374Z,993.01
2023-05-01T06:38:43.344Z,992.91
2023-05-01T06:39:43.368Z,992.95
2023-05-01T06:40:43.337Z,992.97
2023-05-01T06:41:43.335Z,992.99
2023-05-01T06:42:43.317Z,992.96
2023-05-01T06:43:43.305Z,992.93
2023-05-01T06:44:43.299Z,992.94
2023-05-01T06:45:44.870Z,992.95
2023-05-01T06:46:43.306Z,992.91
2023-05-01T06:47:43.339Z,992.92
2023-05-01T06:48:43.276Z,992.91
2023-05-01T06:49:43.258Z,992.95
2023-05-01T06:50:43.306Z,992.87
2023-05-01T06:51:43.257Z,992.87
2023-05-01T06:52:44.953Z,992.89
2023-05-01T06:53:43.249Z,992.83
2023-05-01T06:54:43.238Z,992.85
2023-05-01T06:55:43.220Z,992.84
2023-05-01T06:56:43.204Z,992.91
2023-05-01T06:57:43.212Z,992.85
2023-05-01T06:58:43.188Z,992.85
2023-05-01T06:59:43.193Z,992.83
2023-05-01T07:00:43.185Z,992.82
2023-05-01T07:01:43.255Z,992.84
2023-05-01T07:02:43.290Z,992.87
2023-05-01T07:03:43.225Z,992.82
2023-05-01T07:04:43.976Z,992.78
2023-05-01T07:05:43.127Z,992.85
2023-05-01T07:06:43.144Z,992.84
2023-05-01T07:07:54.135Z,992.76
2023-05-01T07:08:44.135Z,992.82
2023-05-01T07:09:43.113Z,992.79
2023-05-01T07:10:43.109Z,992.79
2023-05-01T07:11:44.982Z,992.78
2023-05-01T07:12:43.091Z,992.80
2023-05-01T07:13:43.065Z,992.82
2023-05-01T07:14:43.071Z,992.71
2023-05-01T07:15:43.054Z,992.73
2023-05-01T07:16:43.105Z,992.77
2023-05-01T07:17:43.057Z,992.76
2023-05-01T07:18:43.032Z,992.72
2023-05-01T07:19:43.029Z,992.72
2023-05-01T07:20:43.033Z,992.78
2023-05-01T07:21:44.885Z,992.70
2023-05-01T07:22:43.009Z,992.71
2023-05-01T07:23:42.998Z,992.70
2023-05-01T07:24:45.908Z,992.78
2023-05-01T07:25:42.990Z,992.65
2023-05-01T07:26:42.969Z,992.73
2023-05-01T07:27:42.968Z,992.73
2023-05-01T07:28:42.953Z,992.71
2023-05-01T07:29:42.955Z,992.69
2023-05-01T07:30:42.937Z,992.71
2023-05-01T07:31:43.578Z,992.66
2023-05-01T07:32:42.958Z,992.69
2023-05-01T07:33:42.937Z,992.68
2023-05-01T07:34:42.915Z,992.67
2023-05-01T07:35:42.892Z,992.70
2023-05-01T07:36:42.900Z,992.64
2023-05-01T07:37:42.907Z,992.63
2023-05-01T07:38:42.892Z,992.67
2023-05-01T07:39:42.888Z,992.64
2023-05-01T07:40:42.876Z,992.63
2023-05-01T07:41:42.848Z,992.64
2023-05-01T07:42:42.835Z,992.60
2023-05-01T07:43:44.391Z,992.54
2023-05-01T07:44:42.853Z,992.54
2023-05-01T07:45:43.145Z,992.53
2023-05-01T07:46:42.815Z,992.52
2023-05-01T07:47:42.873Z,992.50
2023-05-01T07:48:42.813Z,992.45
2023-05-01T07:49:43.415Z,992.49
2023-05-01T07:50:42.785Z,992.48
2023-05-01T07:51:42.783Z,992.46
2023-05-01T07:52:42.815Z,992.45
2023-05-01T07:53:42.753Z,992.47
2023-05-01T07:54:42.760Z,992.41
2023-05-01T07:55:42.751Z,992.44
2023-05-01T07:56:42.734Z,992.46
2023-05-01T07:57:42.723Z,992.41
2023-05-01T07:58:42.726Z,992.43
2023-05-01T07:59:42.715Z,992.38
2023-05-01T08:00:42.720Z,992.44
2023-05-01T08:01:42.709Z,992.32
2023-05-01T08:02:42.792Z,992.38
2023-05-01T08:03:42.779Z,992.33
2023-05-01T08:04:42.684Z,992.36
2023-05-01T08:05:42.687Z,992.32
2023-05-01T08:06:42.694Z,992.31
2023-05-01T08:07:42.636Z,992.30
2023-05-01T08:08:42.678Z,992.29
2023-05-01T08:09:42.669Z,992.22
2023-05-01T08:10:42.619Z,992.23
2023-05-01T08:11:42.607Z,992.21
2023-05-01T08:12:42.624Z,992.21
2023-05-01T08:13:42.604Z,992.25
2023-05-01T08:14:42.605Z,992.21
2023-05-01T08:15:42.643Z,992.20
2023-05-01T08:16:42.633Z,992.24
2023-05-01T08:17:42.612Z,992.23
2023-05-01T08:18:42.627Z,992.20
2023-05-01T08:19:42.562Z,992.25
2023-05-01T08:20:42.558Z,992.21
2023-05-01T08:21:42.551Z,992.20
2023-05-01T08:22:43.548Z,992.15
2023-05-01T08:23:42.522Z,992.22
2023-05-01T08:24:42.510Z,992.19
2023-05-01T08:25:42.521Z,992.14
2023-05-01T08:26:42.516Z,992.17
2023-05-01T08:27:42.502Z,992.15
2023-05-01T08:28:42.496Z,992.19
2023-05-01T08:29:42.471Z,992.17
2023-05-01T08:30:43.479Z,992.16
2023-05-01T08:31:42.519Z,992.17
2023-05-01T08:32:42.512Z,992.08
2023-05-01T08:33:42.450Z,992.18
2023-05-01T08:34:42.464Z,992.16
2023-05-01T08:35:43.997Z,992.11
2023-05-01T08:36:42.485Z,992.16
2023-05-01T08:37:42.414Z,992.13
2023-05-01T08:38:42.417Z,992.18
2023-05-01T08:39:42.403Z,992.20
2023-05-01T08:40:42.388Z,992.19
2023-05-01T08:41:42.954Z,992.14
2023-05-01T08:42:42.423Z,992.10
2023-05-01T08:43:42.387Z,992.18
2023-05-01T08:44:42.377Z,992.08
2023-05-01T08:45:42.375Z,992.11
2023-05-01T08:46:42.411Z,992.09
2023-05-01T08:47:42.410Z,992.10
2023-05-01T08:48:42.335Z,992.00
2023-05-01T08:49:42.327Z,992.04
2023-05-01T08:50:42.324Z,992.03
2023-05-01T08:51:42.334Z,992.04
2023-05-01T08:52:44.008Z,992.03
2023-05-01T08:53:43.302Z,992.01
2023-05-01T08:54:42.293Z,992.01
2023-05-01T08:55:42.293Z,992.02
2023-05-01T08:56:42.289Z,991.97
2023-05-01T08:57:42.266Z,992.05
2023-05-01T08:58:42.293Z,992.01
2023-05-01T08:59:42.249Z,991.93
2023-05-01T09:00:42.306Z,991.95
2023-05-01T09:01:42.273Z,991.94
2023-05-01T09:02:42.259Z,991.94
2023-05-01T09:03:42.261Z,991.85
2023-05-01T09:04:42.229Z,991.90
2023-05-01T09:05:42.209Z,991.81
2023-05-01T09:06:42.268Z,991.89
2023-05-01T09:07:43.030Z,991.85
2023-05-01T09:08:42.173Z,991.84
2023-05-01T09:09:42.174Z,991.80
2023-05-01T09:10:42.173Z,991.82
2023-05-01T09:11:42.147Z,991.77
2023-05-01T09:12:42.172Z,991.88
2023-05-01T09:13:43.014Z,991.89
2023-05-01T09:14:42.164Z,991.88
2023-05-01T09:15:42.125Z,991.84
2023-05-01T09:16:43.043Z,991.82
2023-05-01T09:17:42.170Z,991.82
2023-05-01T09:18:42.118Z,991.80
2023-05-01T09:19:42.101Z,991.81
2023-05-01T09:20:42.103Z,991.76
2023-05-01T09:21:42.080Z,991.77
2023-05-01T09:22:42.088Z,991.82
2023-05-01T09:23:42.081Z,991.77
2023-05-01T09:24:42.052Z,991.77
2023-05-01T09:25:42.061Z,991.74
2023-05-01T09:26:42.069Z,991.73
2023-05-01T09:27:42.053Z,991.74
2023-05-01T09:28:44.011Z,991.73
2023-05-01T09:29:42.023Z,991.74
2023-05-01T09:30:42.022Z,991.78
2023-05-01T09:31:42.068Z,991.76
2023-05-01T09:32:42.669Z,991.71
2023-05-01T09:33:42.976Z,991.74
2023-05-01T09:34:41.994Z,991.66
2023-05-01T09:35:41.996Z,991.67
2023-05-01T09:36:41.979Z,991.65
2023-05-01T09:37:41.960Z,991.63
2023-05-01T09:38:42.059Z,991.59
2023-05-01T09:39:41.947Z,991.62
2023-05-01T09:40:41.929Z,991.58
2023-05-01T09:41:41.930Z,991.57
2023-05-01T09:42:41.942Z,991.56
2023-05-01T09:43:41.950Z,991.53
2023-05-01T09:44:41.924Z,991.55
2023-05-01T09:45:41.918Z,991.51
2023-05-01T09:46:41.932Z,991.56
2023-05-01T09:47:41.898Z,991.54
2023-05-01T09:48:41.882Z,991.52
2023-05-01T09:49:41.884Z,991.49
2023-05-01T09:50:41.863Z,991.56
2023-05-01T09:51:41.837Z,991.51
2023-05-01T09:52:41.850Z,991.49
2023-05-01T09:53:41.850Z,991.55
2023-05-01T09:54:41.853Z,991.46
2023-05-01T09:55:41.815Z,991.48
2023-05-01T09:56:41.821Z,991.54
2023-05-01T09:57:41.803Z,991.51
2023-05-01T09:58:41.835Z,991.51
2023-05-01T09:59:41.806Z,991.49
2023-05-01T10:00:41.777Z,991.48
2023-05-01T10:01:41.936Z,991.44
2023-05-01T10:02:42.664Z,991.41
2023-05-01T10:03:41.904Z,991.43
2023-05-01T10:04:41.747Z,991.42
2023-05-01T10:05:41.750Z,991.43
2023-05-01T10:06:41.801Z,991.46
2023-05-01T10:07:41.713Z,991.41
2023-05-01T10:08:41.726Z,991.43
2023-05-01T10:09:41.716Z,991.41
2023-05-01T10:10:41.808Z,991.40
2023-05-01T10:11:41.697Z,991.39
2023-05-01T10:12:43.535Z,991.38
2023-05-01T10:13:41.698Z,991.40
2023-05-01T10:14:41.660Z,991.35
2023-05-01T10:15:41.690Z,991.36
2023-05-01T10:16:41.721Z,991.37
2023-05-01T10:17:41.693Z,991.32
2023-05-01T10:18:41.718Z,991.32
2023-05-01T10:19:41.635Z,991.31
2023-05-01T10:20:41.641Z,991.33
2023-05-01T10:21:41.635Z,991.29
2023-05-01T10:22:41.601Z,991.32
2023-05-01T10:23:41.622Z,991.28
2023-05-01T10:24:41.625Z,991.28
2023-05-01T10:25:41.608Z,991.29
2023-05-01T10:26:41.640Z,991.23
2023-05-01T10:27:41.591Z,991.26
2023-05-01T10:28:41.571Z,991.23
2023-05-01T10:29:42.505Z,991.26
2023-05-01T10:30:41.556Z,991.29
2023-05-01T10:31:42.658Z,991.24
2023-05-01T10:32:42.588Z,991.28
2023-05-01T10:33:41.656Z,991.23
2023-05-01T10:34:41.567Z,991.23
2023-05-01T10:35:41.521Z,991.22
2023-05-01T10:36:41.535Z,991.28
2023-05-01T10:37:41.504Z,991.23
2023-05-01T10:38:41.506Z,991.26
2023-05-01T10:39:41.482Z,991.23
2023-05-01T10:40:41.488Z,991.24
2023-05-01T10:41:41.467Z,991.22
2023-05-01T10:42:41.549Z,991.23
2023-05-01T10:43:41.459Z,991.21
2023-05-01T10:44:41.448Z,991.19
2023-05-01T10:45:41.455Z,991.24
2023-05-01T10:46:41.460Z,991.22
2023-05-01T10:47:41.545Z,991.18
2023-05-01T10:48:41.421Z,991.15
2023-05-01T10:49:41.401Z,991.19
2023-05-01T10:50:42.073Z,991.16
2023-05-01T10:51:41.376Z,991.16
2023-05-01T10:52:41.480Z,991.12
2023-05-01T10:53:41.367Z,991.17
2023-05-01T10:54:41.371Z,991.17
2023-05-01T10:55:41.356Z,991.15
2023-05-01T10:56:41.359Z,991.13
2023-05-01T10:57:41.335Z,991.07
2023-05-01T10:58:42.059Z,991.10
2023-05-01T10:59:41.336Z,991.08
2023-05-01T11:00:41.974Z,991.13
2023-05-01T11:01:41.389Z,991.06
2023-05-01T11:02:41.361Z,991.05
2023-05-01T11:03:41.323Z,991.06
2023-05-01T11:04:41.301Z,991.09
2023-05-01T11:05:41.307Z,991.07
2023-05-01T11:06:41.339Z,991.04
2023-05-01T11:07:41.274Z,990.99
2023-05-01T11:08:44.073Z,991.04
2023-05-01T11:09:41.465Z,991.01
2023-05-01T11:10:41.252Z,990.98
2023-05-01T11:11:41.225Z,991.02
2023-05-01T11:12:42.982Z,990.97
2023-05-01T11:13:41.214Z,990.96
2023-05-01T11:14:41.213Z,990.93
2023-05-01T11:15:42.113Z,990.94
2023-05-01T11:16:41.260Z,990.88
2023-05-01T11:17:41.321Z,990.90
2023-05-01T11:18:41.182Z,990.88
2023-05-01T11:19:41.207Z,990.96
2023-05-01T11:20:41.158Z,990.90
2023-05-01T11:21:41.198Z,990.88
2023-05-01T11:22:41.147Z,990.91
2023-05-01T11:23:41.135Z,990.91
2023-05-01T11:24:41.131Z,990.88
2023-05-01T11:25:41.123Z,990.88
2023-05-01T11:26:41.129Z,990.85
2023-05-01T11:27:41.102Z,990.84
2023-05-01T11:28:41.105Z,990.83
2023-05-01T11:29:42.090Z,990.80
2023-05-01T11:30:41.098Z,990.88
2023-05-01T11:31:41.160Z,990.83
2023-05-01T11:32:41.106Z,990.88
2023-05-01T11:33:41.066Z,990.88
2023-05-01T11:34:41.047Z,990.85
2023-05-01T11:35:41.050Z,990.81
2023-05-01T11:36:41.039Z,990.81
2023-05-01T11:37:41.068Z,990.81
2023-05-01T11:38:41.049Z,990.83
2023-05-01T11:39:41.016Z,990.86
2023-05-01T11:40:40.996Z,990.80
2023-05-01T11:41:41.080Z,990.76
2023-05-01T11:42:41.011Z,990.86
2023-05-01T11:44:47.846Z,990.80
2023-05-01T11:45:47.862Z,990.78
2023-05-01T11:46:47.819Z,990.87
2023-05-01T11:47:47.843Z,990.78
2023-05-01T11:48:47.801Z,990.78
2023-05-01T11:49:47.800Z,990.80
2023-05-01T11:50:47.802Z,990.79
2023-05-01T11:51:49.689Z,990.81
2023-05-01T11:52:47.797Z,990.79
2023-05-01T11:53:47.770Z,990.84
2023-05-01T11:54:47.759Z,990.77
2023-05-01T11:55:47.747Z,990.83
2023-05-01T11:56:47.764Z,990.81
2023-05-01T11:57:47.752Z,990.82
2023-05-01T11:58:47.740Z,990.77
2023-05-01T11:59:48.833Z,990.82
2023-05-01T12:00:48.843Z,990.80
2023-05-01T12:01:48.829Z,990.75
2023-05-01T12:02:48.841Z,990.76
2023-05-01T12:03:48.856Z,990.73
2023-05-01T12:04:50.369Z,990.72
2023-05-01T12:05:48.840Z,990.74
2023-05-01T12:06:48.799Z,990.69
2023-05-01T12:07:48.741Z,990.76
2023-05-01T12:08:48.754Z,990.71
2023-05-01T12:09:48.738Z,990.73
2023-05-01T12:10:49.356Z,990.76
2023-05-01T12:11:50.526Z,990.69
2023-05-01T12:12:48.713Z,990.71
2023-05-01T12:13:48.709Z,990.68
2023-05-01T12:14:48.693Z,990.71
2023-05-01T12:15:48.692Z,990.67
2023-05-01T12:16:48.807Z,990.71
2023-05-01T12:17:49.359Z,990.74
2023-05-01T12:18:48.672Z,990.67
2023-05-01T12:19:48.653Z,990.66
2023-05-01T12:20:48.681Z,990.65
2023-05-01T12:21:48.665Z,990.64
2023-05-01T12:22:48.636Z,990.60
2023-05-01T12:23:48.634Z,990.59
2023-05-01T12:24:48.611Z,990.63
2023-05-01T12:25:48.608Z,990.61
2023-05-01T12:26:48.606Z,990.61
2023-05-01T12:27:48.606Z,990.64
2023-05-01T12:28:48.592Z,990.62
2023-05-01T12:29:48.565Z,990.65
2023-05-01T12:30:48.579Z,990.62
2023-05-01T12:31:48.680Z,990.58
2023-05-01T12:32:48.580Z,990.61